createdAt,value
2017-12-25T00:00:15.163Z,1015.24
2017-12-25T00:01:15.094Z,1015.26
2017-12-25T00:02:15.180Z,1015.22
2017-12-25T00:03:15.197Z,1015.21
2017-12-25T00:04:15.122Z,1015.21
2017-12-25T00:05:15.103Z,1015.2
2017-12-25T00:06:15.140Z,1015.25
2017-12-25T00:07:15.118Z,1015.24
2017-12-25T00:08:15.164Z,1015.25
2017-12-25T00:09:15.126Z,1015.27
2017-12-25T00:10:15.082Z,1015.22
2017-12-25T00:11:15.211Z,1015.15
2017-12-25T00:12:15.090Z,1015.22
2017-12-25T00:13:15.176Z,1015.2
2017-12-25T00:14:15.221Z,1015.17
2017-12-25T00:15:15.107Z,1015.14
2017-12-25T00:16:15.080Z,1015.13
2017-12-25T00:17:15.088Z,1015.12
2017-12-25T00:18:15.146Z,1015.13
2017-12-25T00:19:15.130Z,1015.11
2017-12-25T00:20:15.135Z,1015.06
2017-12-25T00:21:15.169Z,1015.05
2017-12-25T00:22:15.098Z,1015.07
2017-12-25T00:23:15.116Z,1015.07
2017-12-25T00:24:15.125Z,1015.08
2017-12-25T00:25:15.161Z,1015.06
2017-12-25T00:26:15.370Z,1015.05
2017-12-25T00:27:15.152Z,1015.06
2017-12-25T00:28:15.154Z,1015.03
2017-12-25T00:29:15.138Z,1015.05
2017-12-25T00:30:15.168Z,1015.06
2017-12-25T00:31:15.172Z,1015.01
2017-12-25T00:32:15.403Z,1015.04
2017-12-25T00:33:15.170Z,1015.05
2017-12-25T00:34:15.143Z,1015.03
2017-12-25T00:35:15.175Z,1014.99
2017-12-25T00:36:15.125Z,1015
2017-12-25T00:37:15.128Z,1014.97
2017-12-25T00:38:15.172Z,1014.99
2017-12-25T00:39:15.166Z,1014.93
2017-12-25T00:40:15.174Z,1014.95
2017-12-25T00:41:15.147Z,1014.96
2017-12-25T00:42:15.166Z,1014.97
2017-12-25T00:43:15.216Z,1014.92
2017-12-25T00:44:15.392Z,1014.9
2017-12-25T00:45:15.169Z,1014.89
2017-12-25T00:46:15.185Z,1014.89
2017-12-25T00:47:15.184Z,1014.85
2017-12-25T00:48:15.170Z,1014.86
2017-12-25T00:49:15.198Z,1014.85
2017-12-25T00:50:15.214Z,1014.84
2017-12-25T00:51:15.178Z,1014.82
2017-12-25T00:52:15.178Z,1014.8
2017-12-25T00:53:15.225Z,1014.78
2017-12-25T00:54:15.168Z,1014.85
2017-12-25T00:55:15.207Z,1014.85
2017-12-25T00:56:15.177Z,1014.82
2017-12-25T00:57:15.177Z,1014.83
2017-12-25T00:58:15.170Z,1014.82
2017-12-25T00:59:15.190Z,1014.82
2017-12-25T01:00:15.158Z,1014.84
2017-12-25T01:01:15.213Z,1014.86
2017-12-25T01:02:15.213Z,1014.88
2017-12-25T01:03:15.165Z,1014.82
2017-12-25T01:04:15.155Z,1014.85
2017-12-25T01:05:15.142Z,1014.9
2017-12-25T01:06:15.206Z,1014.86
2017-12-25T01:07:15.232Z,1014.86
2017-12-25T01:08:15.513Z,1014.86
2017-12-25T01:09:15.204Z,1014.85
2017-12-25T01:10:15.230Z,1014.87
2017-12-25T01:11:15.153Z,1014.88
2017-12-25T01:12:15.172Z,1014.84
2017-12-25T01:13:15.197Z,1014.82
2017-12-25T01:14:15.252Z,1014.81
2017-12-25T01:15:15.206Z,1014.79
2017-12-25T01:16:15.157Z,1014.83
2017-12-25T01:17:15.152Z,1014.82
2017-12-25T01:18:15.221Z,1014.82
2017-12-25T01:19:15.184Z,1014.81
2017-12-25T01:20:15.205Z,1014.77
2017-12-25T01:21:15.187Z,1014.79
2017-12-25T01:22:15.194Z,1014.8
2017-12-25T01:23:15.217Z,1014.8
2017-12-25T01:24:15.164Z,1014.81
2017-12-25T01:25:15.240Z,1014.82
2017-12-25T01:26:15.416Z,1014.77
2017-12-25T01:27:15.213Z,1014.77
2017-12-25T01:28:15.191Z,1014.79
2017-12-25T01:29:15.235Z,1014.8
2017-12-25T01:30:15.166Z,1014.82
2017-12-25T01:31:15.223Z,1014.8
2017-12-25T01:32:15.245Z,1014.81
2017-12-25T01:33:15.201Z,1014.82
2017-12-25T01:34:15.193Z,1014.81
2017-12-25T01:35:15.221Z,1014.76
2017-12-25T01:36:15.162Z,1014.8
2017-12-25T01:37:15.197Z,1014.77
2017-12-25T01:38:15.240Z,1014.77
2017-12-25T01:39:15.211Z,1014.79
2017-12-25T01:40:15.252Z,1014.79
2017-12-25T01:41:15.220Z,1014.78
2017-12-25T01:42:15.233Z,1014.79
2017-12-25T01:43:15.245Z,1014.78
2017-12-25T01:44:15.206Z,1014.81
2017-12-25T01:45:15.164Z,1014.78
2017-12-25T01:46:15.297Z,1014.8
2017-12-25T01:47:15.208Z,1014.75
2017-12-25T01:48:15.251Z,1014.78
2017-12-25T01:49:15.210Z,1014.76
2017-12-25T01:50:15.511Z,1014.77
2017-12-25T01:51:15.157Z,1014.73
2017-12-25T01:52:15.187Z,1014.75
2017-12-25T01:53:15.203Z,1014.77
2017-12-25T01:54:15.182Z,1014.77
2017-12-25T01:55:15.299Z,1014.72
2017-12-25T01:56:15.427Z,1014.71
2017-12-25T01:57:15.231Z,1014.75
2017-12-25T01:58:15.227Z,1014.71
2017-12-25T01:59:15.238Z,1014.7
2017-12-25T02:00:15.205Z,1014.71
2017-12-25T02:01:15.209Z,1014.67
2017-12-25T02:02:15.208Z,1014.7
2017-12-25T02:03:15.242Z,1014.71
2017-12-25T02:04:15.239Z,1014.69
2017-12-25T02:05:15.191Z,1014.67
2017-12-25T02:06:15.478Z,1014.64
2017-12-25T02:07:15.216Z,1014.66
2017-12-25T02:08:15.264Z,1014.66
2017-12-25T02:09:15.276Z,1014.64
2017-12-25T02:10:15.250Z,1014.63
2017-12-25T02:11:15.228Z,1014.6
2017-12-25T02:12:15.188Z,1014.56
2017-12-25T02:13:15.238Z,1014.52
2017-12-25T02:14:15.492Z,1014.53
2017-12-25T02:15:15.272Z,1014.53
2017-12-25T02:16:15.182Z,1014.52
2017-12-25T02:17:15.210Z,1014.52
2017-12-25T02:18:15.253Z,1014.54
2017-12-25T02:19:15.266Z,1014.52
2017-12-25T02:20:15.223Z,1014.52
2017-12-25T02:21:15.279Z,1014.5
2017-12-25T02:22:15.251Z,1014.46
2017-12-25T02:23:15.195Z,1014.44
2017-12-25T02:24:15.221Z,1014.47
2017-12-25T02:25:15.266Z,1014.45
2017-12-25T02:26:15.274Z,1014.49
2017-12-25T02:27:15.241Z,1014.47
2017-12-25T02:28:15.196Z,1014.44
2017-12-25T02:29:15.262Z,1014.42
2017-12-25T02:30:15.193Z,1014.4
2017-12-25T02:31:15.242Z,1014.4
2017-12-25T02:32:15.285Z,1014.4
2017-12-25T02:33:15.205Z,1014.41
2017-12-25T02:34:15.193Z,1014.38
2017-12-25T02:35:15.271Z,1014.36
2017-12-25T02:36:15.242Z,1014.36
2017-12-25T02:37:15.371Z,1014.31
2017-12-25T02:38:15.513Z,1014.33
2017-12-25T02:39:15.286Z,1014.3
2017-12-25T02:40:15.251Z,1014.3
2017-12-25T02:41:15.287Z,1014.26
2017-12-25T02:42:15.217Z,1014.27
2017-12-25T02:43:15.276Z,1014.25
2017-12-25T02:44:15.310Z,1014.22
2017-12-25T02:45:15.216Z,1014.26
2017-12-25T02:46:15.305Z,1014.22
2017-12-25T02:47:15.313Z,1014.2
2017-12-25T02:48:15.274Z,1014.16
2017-12-25T02:49:15.306Z,1014.21
2017-12-25T02:50:15.273Z,1014.22
2017-12-25T02:51:15.292Z,1014.15
2017-12-25T02:52:15.242Z,1014.21
2017-12-25T02:53:15.293Z,1014.15
2017-12-25T02:54:15.264Z,1014.13
2017-12-25T02:55:15.284Z,1014.17
2017-12-25T02:56:15.258Z,1014.14
2017-12-25T02:57:15.295Z,1014.13
2017-12-25T02:58:15.302Z,1014.14
2017-12-25T02:59:15.213Z,1014.12
2017-12-25T03:00:15.288Z,1014.16
2017-12-25T03:01:15.318Z,1014.17
2017-12-25T03:02:15.316Z,1014.17
2017-12-25T03:03:15.312Z,1014.17
2017-12-25T03:04:15.280Z,1014.18
2017-12-25T03:05:15.242Z,1014.16
2017-12-25T03:06:15.316Z,1014.17
2017-12-25T03:07:15.340Z,1014.18
2017-12-25T03:08:15.486Z,1014.2
2017-12-25T03:09:15.288Z,1014.17
2017-12-25T03:10:15.277Z,1014.13
2017-12-25T03:11:15.328Z,1014.13
2017-12-25T03:12:15.274Z,1014.14
2017-12-25T03:13:40.366Z,1014.15
2017-12-25T03:14:15.238Z,1014.15
2017-12-25T03:15:15.333Z,1014.16
2017-12-25T03:16:15.280Z,1014.13
2017-12-25T03:17:15.299Z,1014.15
2017-12-25T03:18:15.279Z,1014.12
2017-12-25T03:19:15.310Z,1014.1
2017-12-25T03:20:15.321Z,1014.15
2017-12-25T03:21:15.289Z,1014.13
2017-12-25T03:22:15.311Z,1014.1
2017-12-25T03:23:15.349Z,1014.08
2017-12-25T03:24:15.347Z,1014.08
2017-12-25T03:25:15.457Z,1014.11
2017-12-25T03:26:15.313Z,1014.1
2017-12-25T03:27:15.247Z,1014.02
2017-12-25T03:28:15.290Z,1014.03
2017-12-25T03:29:15.333Z,1014.03
2017-12-25T03:30:15.286Z,1014.05
2017-12-25T03:31:15.519Z,1014.04
2017-12-25T03:32:15.256Z,1014.02
2017-12-25T03:33:15.308Z,1014.05
2017-12-25T03:34:15.306Z,1014.03
2017-12-25T03:35:15.333Z,1014.03
2017-12-25T03:36:15.353Z,1014.03
2017-12-25T03:37:15.378Z,1014.02
2017-12-25T03:38:15.333Z,1013.98
2017-12-25T03:39:15.273Z,1014.01
2017-12-25T03:40:15.292Z,1013.98
2017-12-25T03:41:15.339Z,1013.95
2017-12-25T03:42:15.345Z,1013.93
2017-12-25T03:43:15.545Z,1013.94
2017-12-25T03:44:15.334Z,1013.95
2017-12-25T03:45:15.343Z,1013.97
2017-12-25T03:46:15.294Z,1013.96
2017-12-25T03:47:15.338Z,1013.98
2017-12-25T03:48:15.334Z,1013.91
2017-12-25T03:49:15.345Z,1013.93
2017-12-25T03:50:15.286Z,1013.93
2017-12-25T03:51:15.280Z,1013.93
2017-12-25T03:52:15.351Z,1013.89
2017-12-25T03:53:15.340Z,1013.88
2017-12-25T03:54:15.332Z,1013.88
2017-12-25T03:55:15.359Z,1013.89
2017-12-25T03:56:15.309Z,1013.88
2017-12-25T03:57:15.352Z,1013.84
2017-12-25T03:58:15.378Z,1013.79
2017-12-25T03:59:15.333Z,1013.82
2017-12-25T04:00:15.365Z,1013.8
2017-12-25T04:01:15.523Z,1013.78
2017-12-25T04:02:15.299Z,1013.81
2017-12-25T04:03:15.348Z,1013.82
2017-12-25T04:04:15.377Z,1013.76
2017-12-25T04:05:15.356Z,1013.78
2017-12-25T04:06:15.333Z,1013.79
2017-12-25T04:07:15.540Z,1013.78
2017-12-25T04:08:15.411Z,1013.73
2017-12-25T04:09:15.459Z,1013.79
2017-12-25T04:10:15.352Z,1013.75
2017-12-25T04:11:15.367Z,1013.74
2017-12-25T04:12:15.376Z,1013.76
2017-12-25T04:13:15.313Z,1013.76
2017-12-25T04:14:15.295Z,1013.71
2017-12-25T04:15:15.357Z,1013.75
2017-12-25T04:16:15.352Z,1013.69
2017-12-25T04:17:15.302Z,1013.69
2017-12-25T04:18:15.387Z,1013.72
2017-12-25T04:19:15.408Z,1013.68
2017-12-25T04:20:15.300Z,1013.67
2017-12-25T04:21:15.316Z,1013.68
2017-12-25T04:22:15.366Z,1013.69
2017-12-25T04:23:15.312Z,1013.68
2017-12-25T04:24:15.359Z,1013.68
2017-12-25T04:25:15.396Z,1013.7
2017-12-25T04:26:15.308Z,1013.72
2017-12-25T04:27:15.358Z,1013.69
2017-12-25T04:28:15.350Z,1013.73
2017-12-25T04:29:15.340Z,1013.66
2017-12-25T04:30:15.401Z,1013.7
2017-12-25T04:31:15.327Z,1013.7
2017-12-25T04:32:15.360Z,1013.66
2017-12-25T04:33:15.362Z,1013.69
2017-12-25T04:34:15.367Z,1013.65
2017-12-25T04:35:15.414Z,1013.67
2017-12-25T04:36:15.401Z,1013.64
2017-12-25T04:37:15.399Z,1013.61
2017-12-25T04:38:15.396Z,1013.67
2017-12-25T04:39:15.358Z,1013.58
2017-12-25T04:40:15.396Z,1013.63
2017-12-25T04:41:15.365Z,1013.6
2017-12-25T04:42:15.411Z,1013.61
2017-12-25T04:43:15.390Z,1013.59
2017-12-25T04:44:15.373Z,1013.55
2017-12-25T04:45:15.363Z,1013.56
2017-12-25T04:46:15.400Z,1013.52
2017-12-25T04:47:15.311Z,1013.55
2017-12-25T04:48:15.385Z,1013.58
2017-12-25T04:49:15.414Z,1013.52
2017-12-25T04:50:15.325Z,1013.55
2017-12-25T04:51:15.397Z,1013.53
2017-12-25T04:52:15.350Z,1013.5
2017-12-25T04:53:15.338Z,1013.5
2017-12-25T04:54:15.362Z,1013.53
2017-12-25T04:55:15.582Z,1013.5
2017-12-25T04:56:15.361Z,1013.54
2017-12-25T04:57:15.322Z,1013.51
2017-12-25T04:58:15.401Z,1013.51
2017-12-25T04:59:15.332Z,1013.5
2017-12-25T05:00:15.403Z,1013.49
2017-12-25T05:01:15.344Z,1013.49
2017-12-25T05:02:15.343Z,1013.49
2017-12-25T05:03:15.388Z,1013.47
2017-12-25T05:04:15.416Z,1013.46
2017-12-25T05:05:15.402Z,1013.45
2017-12-25T05:06:15.376Z,1013.46
2017-12-25T05:07:15.358Z,1013.46
2017-12-25T05:08:15.429Z,1013.46
2017-12-25T05:09:15.356Z,1013.43
2017-12-25T05:10:15.389Z,1013.46
2017-12-25T05:11:15.454Z,1013.44
2017-12-25T05:12:15.389Z,1013.45
2017-12-25T05:13:15.408Z,1013.38
2017-12-25T05:14:15.390Z,1013.39
2017-12-25T05:15:15.400Z,1013.39
2017-12-25T05:16:15.417Z,1013.41
2017-12-25T05:17:15.385Z,1013.39
2017-12-25T05:18:15.459Z,1013.37
2017-12-25T05:19:15.367Z,1013.4
2017-12-25T05:20:15.358Z,1013.39
2017-12-25T05:21:15.422Z,1013.36
2017-12-25T05:22:15.582Z,1013.41
2017-12-25T05:23:15.338Z,1013.36
2017-12-25T05:24:15.685Z,1013.31
2017-12-25T05:25:15.447Z,1013.29
2017-12-25T05:26:15.362Z,1013.29
2017-12-25T05:27:15.359Z,1013.28
2017-12-25T05:28:15.371Z,1013.26
2017-12-25T05:29:15.458Z,1013.27
2017-12-25T05:30:15.419Z,1013.29
2017-12-25T05:31:15.435Z,1013.24
2017-12-25T05:32:15.422Z,1013.35
2017-12-25T05:33:15.368Z,1013.29
2017-12-25T05:34:15.426Z,1013.31
2017-12-25T05:35:15.686Z,1013.31
2017-12-25T05:36:15.461Z,1013.29
2017-12-25T05:37:15.434Z,1013.28
2017-12-25T05:38:15.367Z,1013.23
2017-12-25T05:39:15.472Z,1013.22
2017-12-25T05:40:15.447Z,1013.23
2017-12-25T05:41:15.412Z,1013.24
2017-12-25T05:42:15.491Z,1013.18
2017-12-25T05:43:15.439Z,1013.18
2017-12-25T05:44:15.372Z,1013.16
2017-12-25T05:45:15.567Z,1013.16
2017-12-25T05:46:15.390Z,1013.1
2017-12-25T05:47:15.425Z,1013.09
2017-12-25T05:48:15.432Z,1013.13
2017-12-25T05:49:15.440Z,1013.11
2017-12-25T05:50:15.489Z,1013.07
2017-12-25T05:51:15.418Z,1013.03
2017-12-25T05:52:15.390Z,1013.07
2017-12-25T05:53:15.409Z,1013.05
2017-12-25T05:54:15.414Z,1013.07
2017-12-25T05:55:15.494Z,1013.07
2017-12-25T05:56:15.397Z,1013.03
2017-12-25T05:57:15.432Z,1013.04
2017-12-25T05:58:15.382Z,1013.07
2017-12-25T05:59:15.448Z,1013.04
2017-12-25T06:00:15.477Z,1013.06
2017-12-25T06:01:15.464Z,1013.05
2017-12-25T06:02:15.438Z,1013.05
2017-12-25T06:03:15.447Z,1013.02
2017-12-25T06:04:15.403Z,1013.04
2017-12-25T06:05:15.377Z,1013.03
2017-12-25T06:06:15.441Z,1012.94
2017-12-25T06:07:15.492Z,1012.94
2017-12-25T06:08:15.408Z,1012.96
2017-12-25T06:09:15.422Z,1012.94
2017-12-25T06:10:15.392Z,1012.94
2017-12-25T06:11:15.439Z,1012.96
2017-12-25T06:12:15.416Z,1012.93
2017-12-25T06:13:15.538Z,1012.96
2017-12-25T06:14:15.437Z,1012.94
2017-12-25T06:15:15.457Z,1012.97
2017-12-25T06:16:15.451Z,1012.95
2017-12-25T06:17:15.410Z,1012.98
2017-12-25T06:18:15.483Z,1012.95
2017-12-25T06:19:15.499Z,1012.94
2017-12-25T06:20:15.412Z,1012.95
2017-12-25T06:21:15.416Z,1012.93
2017-12-25T06:22:15.414Z,1012.91
2017-12-25T06:23:15.472Z,1012.92
2017-12-25T06:24:15.473Z,1012.91
2017-12-25T06:25:15.447Z,1012.93
2017-12-25T06:26:15.465Z,1012.94
2017-12-25T06:27:15.433Z,1012.91
2017-12-25T06:28:15.499Z,1012.92
2017-12-25T06:29:15.468Z,1012.93
2017-12-25T06:30:15.451Z,1012.87
2017-12-25T06:31:15.620Z,1012.83
2017-12-25T06:32:15.406Z,1012.86
2017-12-25T06:33:15.448Z,1012.84
2017-12-25T06:34:15.457Z,1012.81
2017-12-25T06:35:15.468Z,1012.82
2017-12-25T06:36:15.460Z,1012.81
2017-12-25T06:37:15.523Z,1012.76
2017-12-25T06:38:15.461Z,1012.73
2017-12-25T06:39:15.478Z,1012.73
2017-12-25T06:40:15.459Z,1012.72
2017-12-25T06:41:15.479Z,1012.73
2017-12-25T06:42:15.927Z,1012.7
2017-12-25T06:43:15.408Z,1012.68
2017-12-25T06:44:15.518Z,1012.66
2017-12-25T06:45:15.457Z,1012.68
2017-12-25T06:46:15.450Z,1012.67
2017-12-25T06:47:15.525Z,1012.69
2017-12-25T06:48:15.458Z,1012.67
2017-12-25T06:49:15.474Z,1012.67
2017-12-25T06:50:15.524Z,1012.6
2017-12-25T06:51:15.481Z,1012.65
2017-12-25T06:52:15.496Z,1012.65
2017-12-25T06:53:15.491Z,1012.61
2017-12-25T06:54:15.501Z,1012.59
2017-12-25T06:54:52.868Z,1012.6
2017-12-25T06:55:24.805Z,1012.6
2017-12-25T06:56:24.827Z,1012.57
2017-12-25T06:57:24.760Z,1012.54
2017-12-25T10:52:30.910Z,1010.8
2017-12-25T10:53:04.463Z,1010.77
2017-12-25T10:53:36.647Z,1010.77
2017-12-25T10:54:36.613Z,1010.7
2017-12-25T10:55:36.697Z,1010.72
2017-12-25T10:56:36.625Z,1010.71
2017-12-25T10:57:36.663Z,1010.66
2017-12-25T10:58:36.723Z,1010.66
2017-12-25T10:59:36.619Z,1010.61
2017-12-25T11:00:36.626Z,1010.59
2017-12-25T11:01:36.707Z,1010.62
2017-12-25T11:02:36.732Z,1010.6
2017-12-25T11:03:36.649Z,1010.52
2017-12-25T11:04:36.581Z,1010.52
2017-12-25T11:05:36.683Z,1010.52
2017-12-25T11:06:36.717Z,1010.49
2017-12-25T11:07:36.645Z,1010.49
2017-12-25T11:08:36.730Z,1010.45
2017-12-25T11:09:36.641Z,1010.46
2017-12-25T11:10:36.634Z,1010.48
2017-12-25T11:11:36.576Z,1010.46
2017-12-25T11:12:36.638Z,1010.44
2017-12-25T11:13:36.697Z,1010.49
2017-12-25T11:14:36.597Z,1010.43
2017-12-25T11:15:36.594Z,1010.42
2017-12-25T11:16:36.681Z,1010.38
2017-12-25T11:17:36.620Z,1010.4
2017-12-25T11:18:36.625Z,1010.38
2017-12-25T11:19:36.593Z,1010.38
2017-12-25T11:20:36.671Z,1010.34
2017-12-25T11:21:36.641Z,1010.31
2017-12-25T11:22:36.631Z,1010.31
2017-12-25T11:23:37.846Z,1010.3
2017-12-25T11:24:37.661Z,1010.27
2017-12-25T11:25:36.684Z,1010.26
2017-12-25T11:26:36.650Z,1010.28
2017-12-25T11:27:36.647Z,1010.2
2017-12-25T11:28:36.599Z,1010.21
2017-12-25T11:29:36.634Z,1010.19
2017-12-25T11:30:36.616Z,1010.19
2017-12-25T11:31:36.689Z,1010.17
2017-12-25T11:32:36.777Z,1010.1
2017-12-25T11:33:36.668Z,1010.1
2017-12-25T11:34:36.671Z,1010.1
2017-12-25T11:35:36.639Z,1010.07
2017-12-25T11:36:36.645Z,1010.08
2017-12-25T11:37:36.696Z,1010.06
2017-12-25T11:38:36.708Z,1010.01
2017-12-25T11:39:36.639Z,1010.09
2017-12-25T11:40:36.641Z,1010.01
2017-12-25T11:59:46.735Z,1009.56
2017-12-25T12:00:46.422Z,1009.54
2017-12-25T12:01:46.430Z,1009.54
2017-12-25T12:02:46.492Z,1009.54
2017-12-25T12:03:46.407Z,1009.53
2017-12-25T12:04:46.503Z,1009.56
2017-12-25T12:05:51.453Z,1009.51
2017-12-25T12:06:41.783Z,1009.48
2017-12-25T12:07:41.708Z,1009.44
2017-12-25T12:08:41.769Z,1009.45
2017-12-25T12:09:41.796Z,1009.39
2017-12-25T12:10:41.804Z,1009.36
2017-12-25T12:11:41.781Z,1009.33
2017-12-25T12:12:41.772Z,1009.28
2017-12-25T12:13:44.382Z,1009.29
2017-12-25T12:14:44.448Z,1009.27
2017-12-25T12:15:44.688Z,1009.28
2017-12-25T12:16:44.424Z,1009.25
2017-12-25T12:17:44.502Z,1009.22
2017-12-25T12:18:44.486Z,1009.26
2017-12-25T12:19:44.456Z,1009.23
2017-12-25T12:20:44.480Z,1009.19
2017-12-25T12:22:21.766Z,1009.19
2017-12-25T12:23:21.745Z,1009.16
2017-12-25T12:24:11.024Z,1009.09
2017-12-25T12:25:10.991Z,1009.13
2017-12-25T12:29:07.706Z,1008.72
2017-12-25T12:30:08.095Z,1008.81
2017-12-25T12:31:07.595Z,1008.75
2017-12-25T12:32:07.706Z,1008.72
2017-12-25T12:33:07.552Z,1008.74
2017-12-25T12:34:07.707Z,1008.74
2017-12-25T12:35:07.794Z,1008.79
2017-12-25T12:36:07.865Z,1008.73
2017-12-25T12:37:07.566Z,1008.77
2017-12-25T12:38:07.739Z,1008.76
2017-12-25T12:39:07.752Z,1008.75
2017-12-25T12:40:07.727Z,1008.71
2017-12-25T12:41:07.698Z,1008.77
2017-12-25T12:42:07.695Z,1008.72
2017-12-25T12:43:07.647Z,1008.69
2017-12-25T12:44:07.714Z,1008.7
2017-12-25T12:45:07.663Z,1008.66
2017-12-25T12:46:07.705Z,1008.63
2017-12-25T12:47:07.679Z,1008.64
2017-12-25T12:48:07.752Z,1008.62
2017-12-25T12:49:07.721Z,1008.57
2017-12-25T12:50:07.773Z,1008.57
2017-12-25T12:51:08.156Z,1008.56
2017-12-25T12:52:07.734Z,1008.53
2017-12-25T12:53:07.738Z,1008.55
2017-12-25T12:54:07.704Z,1008.51
2017-12-25T12:55:07.682Z,1008.48
2017-12-25T12:56:07.789Z,1008.48
2017-12-25T12:57:07.762Z,1008.46
2017-12-25T12:58:07.722Z,1008.46
2017-12-25T12:59:07.755Z,1008.48
2017-12-25T13:00:07.659Z,1008.46
2017-12-25T13:01:07.859Z,1008.45
2017-12-25T13:02:07.760Z,1008.41
2017-12-25T13:03:07.962Z,1008.4
2017-12-25T13:04:07.751Z,1008.37
2017-12-25T13:05:08.036Z,1008.4
2017-12-25T13:06:07.871Z,1008.33
2017-12-25T13:07:07.729Z,1008.35
2017-12-25T13:08:07.804Z,1008.25
2017-12-25T13:09:07.842Z,1008.27
2017-12-25T13:10:07.794Z,1008.2
2017-12-25T13:11:07.609Z,1008.19
2017-12-25T13:12:07.733Z,1008.22
2017-12-25T13:13:07.763Z,1008.17
2017-12-25T13:14:07.750Z,1008.17
2017-12-25T13:15:07.663Z,1008.19
2017-12-25T13:16:07.841Z,1008.17
2017-12-25T13:17:07.805Z,1008.12
2017-12-25T13:18:07.797Z,1008.15
2017-12-25T13:19:07.880Z,1008.07
2017-12-25T13:20:07.685Z,1008.07
2017-12-25T13:21:07.741Z,1008.07
2017-12-25T13:22:07.804Z,1008.08
2017-12-25T13:23:07.755Z,1008.02
2017-12-25T13:24:07.806Z,1008.04
2017-12-25T13:25:07.809Z,1008
2017-12-25T13:26:07.810Z,1007.96
2017-12-25T13:27:07.826Z,1007.98
2017-12-25T13:28:07.741Z,1008.01
2017-12-25T13:29:08.071Z,1008.01
2017-12-25T13:30:07.777Z,1007.99
2017-12-25T13:31:07.789Z,1008.01
2017-12-25T13:32:07.795Z,1008
2017-12-25T13:35:07.826Z,1007.99
2017-12-25T13:36:07.796Z,1007.95
2017-12-25T13:37:07.915Z,1007.92
2017-12-25T13:38:07.699Z,1007.94
2017-12-25T13:39:07.829Z,1007.9
2017-12-25T13:40:07.849Z,1007.87
2017-12-25T13:41:08.762Z,1007.9
2017-12-25T13:42:07.821Z,1007.91
2017-12-25T13:43:08.278Z,1007.9
2017-12-25T13:44:07.774Z,1007.87
2017-12-25T13:45:07.752Z,1007.86
2017-12-25T13:46:07.766Z,1007.79
2017-12-25T13:47:07.850Z,1007.81
2017-12-25T13:48:07.922Z,1007.74
2017-12-25T13:49:07.916Z,1007.72
2017-12-25T13:50:07.835Z,1007.72
2017-12-25T13:51:07.773Z,1007.69
2017-12-25T13:52:07.796Z,1007.71
2017-12-25T13:53:07.816Z,1007.68
2017-12-25T13:54:07.870Z,1007.73
2017-12-25T13:55:07.818Z,1007.69
2017-12-25T13:56:07.844Z,1007.72
2017-12-25T13:57:07.794Z,1007.7
2017-12-25T13:58:07.801Z,1007.73
2017-12-25T13:59:07.774Z,1007.69
2017-12-25T14:00:08.684Z,1007.63
2017-12-25T14:01:07.927Z,1007.64
2017-12-25T14:02:08.022Z,1007.67
2017-12-25T14:03:07.899Z,1007.66
2017-12-25T14:04:07.807Z,1007.63
2017-12-25T14:05:07.830Z,1007.57
2017-12-25T14:06:07.883Z,1007.55
2017-12-25T14:08:07.732Z,1007.57
2017-12-25T14:09:07.666Z,1007.6
2017-12-25T14:10:07.686Z,1007.54
2017-12-25T14:11:07.728Z,1007.56
2017-12-25T14:12:07.723Z,1007.5
2017-12-25T14:13:07.749Z,1007.5
2017-12-25T14:14:07.700Z,1007.5
2017-12-25T14:15:07.690Z,1007.49
2017-12-25T14:16:07.671Z,1007.46
2017-12-25T14:17:07.734Z,1007.5
2017-12-25T14:18:07.697Z,1007.46
2017-12-25T14:19:07.755Z,1007.49
2017-12-25T14:20:07.782Z,1007.52
2017-12-25T14:21:07.983Z,1007.49
2017-12-25T14:22:07.796Z,1007.49
2017-12-25T14:23:07.806Z,1007.46
2017-12-25T14:24:07.915Z,1007.46
2017-12-25T14:25:07.817Z,1007.45
2017-12-25T14:26:07.871Z,1007.43
2017-12-25T14:27:07.825Z,1007.44
2017-12-25T14:28:07.870Z,1007.45
2017-12-25T14:29:07.820Z,1007.48
2017-12-25T14:30:07.837Z,1007.45
2017-12-25T14:31:07.962Z,1007.43
2017-12-25T14:32:07.898Z,1007.4
2017-12-25T14:33:07.864Z,1007.46
2017-12-25T14:34:07.811Z,1007.44
2017-12-25T14:35:07.816Z,1007.45
2017-12-25T14:36:08.086Z,1007.39
2017-12-25T14:37:07.808Z,1007.34
2017-12-25T14:38:07.783Z,1007.31
2017-12-25T14:39:07.991Z,1007.28
2017-12-25T14:40:07.921Z,1007.26
2017-12-25T14:41:07.817Z,1007.29
2017-12-25T14:42:07.847Z,1007.24
2017-12-25T14:43:07.948Z,1007.2
2017-12-25T14:44:07.962Z,1007.15
2017-12-25T14:45:07.816Z,1007.2
2017-12-25T14:46:07.897Z,1007.2
2017-12-25T14:47:07.980Z,1007.19
2017-12-25T14:48:07.889Z,1007.15
2017-12-25T14:49:07.858Z,1007.11
2017-12-25T14:50:07.785Z,1007.07
2017-12-25T14:51:07.937Z,1007.06
2017-12-25T14:52:07.788Z,1007.06
2017-12-25T14:53:07.929Z,1007.06
2017-12-25T14:54:07.923Z,1007.06
2017-12-25T14:55:07.764Z,1007.06
2017-12-25T14:56:07.774Z,1007.07
2017-12-25T14:57:07.800Z,1006.99
2017-12-25T14:58:07.928Z,1006.99
2017-12-25T14:59:07.849Z,1006.92
2017-12-25T15:00:07.792Z,1006.92
2017-12-25T15:01:08.229Z,1006.91
2017-12-25T15:02:10.909Z,1006.93
2017-12-25T15:03:07.943Z,1006.93
2017-12-25T15:04:07.831Z,1006.96
2017-12-25T15:05:07.827Z,1006.99
2017-12-25T15:06:08.064Z,1007
2017-12-25T15:07:07.968Z,1007.06
2017-12-25T15:11:08.119Z,1007.04
2017-12-25T15:12:07.911Z,1007.05
2017-12-25T15:16:08.036Z,1006.99
2017-12-25T15:17:08.059Z,1007
2017-12-25T15:18:08.035Z,1006.97
2017-12-25T15:19:07.939Z,1006.99
2017-12-25T15:20:07.886Z,1007
2017-12-25T15:21:07.850Z,1006.98
2017-12-25T15:22:07.945Z,1007
2017-12-25T15:23:07.977Z,1006.99
2017-12-25T15:24:08.318Z,1007
2017-12-25T15:25:07.805Z,1007.04
2017-12-25T15:26:07.840Z,1006.96
2017-12-25T15:27:08.054Z,1006.92
2017-12-25T15:28:07.967Z,1006.93
2017-12-25T15:29:11.192Z,1006.92
2017-12-25T15:30:08.139Z,1006.86
2017-12-25T15:31:07.851Z,1006.86
2017-12-25T15:32:07.882Z,1006.79
2017-12-25T15:33:08.129Z,1006.78
2017-12-25T15:34:07.970Z,1006.78
2017-12-25T15:35:07.890Z,1006.74
2017-12-25T15:36:07.943Z,1006.69
2017-12-25T15:37:07.877Z,1006.68
2017-12-25T15:38:07.843Z,1006.67
2017-12-25T15:39:07.964Z,1006.68
2017-12-25T15:40:07.994Z,1006.68
2017-12-25T15:41:07.932Z,1006.68
2017-12-25T15:42:07.837Z,1006.64
2017-12-25T15:43:08.034Z,1006.64
2017-12-25T15:44:07.852Z,1006.66
2017-12-25T15:45:08.027Z,1006.65
2017-12-25T15:46:07.840Z,1006.64
2017-12-25T15:47:07.914Z,1006.61
2017-12-25T15:48:08.037Z,1006.61
2017-12-25T15:49:07.959Z,1006.61
2017-12-25T15:50:07.794Z,1006.62
2017-12-25T15:51:07.877Z,1006.67
2017-12-25T15:52:07.959Z,1006.62
2017-12-25T15:53:08.008Z,1006.68
2017-12-25T15:54:08.049Z,1006.65
2017-12-25T15:55:07.939Z,1006.62
2017-12-25T15:56:07.979Z,1006.65
2017-12-25T15:57:08.065Z,1006.59
2017-12-25T15:58:07.958Z,1006.6
2017-12-25T15:59:07.876Z,1006.57
2017-12-25T16:00:07.966Z,1006.57
2017-12-25T16:01:08.054Z,1006.56
2017-12-25T16:02:07.903Z,1006.56
2017-12-25T16:03:08.002Z,1006.57
2017-12-25T16:04:07.878Z,1006.59
2017-12-25T16:05:07.934Z,1006.55
2017-12-25T16:06:08.057Z,1006.57
2017-12-25T16:07:08.009Z,1006.5
2017-12-25T16:08:08.226Z,1006.48
2017-12-25T16:09:07.946Z,1006.49
2017-12-25T16:10:08.039Z,1006.45
2017-12-25T16:11:07.932Z,1006.47
2017-12-25T16:12:07.930Z,1006.42
2017-12-25T16:13:07.983Z,1006.45
2017-12-25T16:14:08.320Z,1006.41
2017-12-25T16:15:07.988Z,1006.42
2017-12-25T16:16:08.019Z,1006.36
2017-12-25T16:17:07.898Z,1006.38
2017-12-25T16:18:08.313Z,1006.35
2017-12-25T16:19:08.065Z,1006.43
2017-12-25T16:20:07.896Z,1006.45
2017-12-25T16:21:08.172Z,1006.45
2017-12-25T16:22:07.939Z,1006.45
2017-12-25T16:23:09.365Z,1006.47
2017-12-25T16:24:07.990Z,1006.45
2017-12-25T16:25:07.930Z,1006.47
2017-12-25T16:26:08.096Z,1006.46
2017-12-25T16:27:08.283Z,1006.43
2017-12-25T16:28:08.071Z,1006.47
2017-12-25T16:29:09.240Z,1006.45
2017-12-25T16:30:08.974Z,1006.44
2017-12-25T16:31:08.619Z,1006.4